Terminal Aerodrome Forecast
Issued by NWS

Home | Current Version | Previous Version | Graphics & Text | Print | Product List | Glossary On
Versions: 1 2 3 4 5 6 7 8 9 10 11 12 13 14 15 16 17
000
FTUS43 KGRB 200529
TAFMTW
TAF
KMTW 200529Z 2006/2106 21006KT P6SM SCT100 BKN200
     FM201800 20013G19KT P6SM BKN200
     FM202300 21015G21KT P6SM SCT120 BKN200 WS014/23045KT=

USA.gov is the U.S. government's official web portal to all federal, state and local government web resources and services.